Time;durP1;ratioP1;P1;durP2;ratioP2;P2;SDS_P1;SDS_P2;PMS_P1;PMS_P2;Temp;Humidity;BMP_temperature;BMP_pressure;BME280_temperature;BME280_humidity;BME280_pressure;Samples;Min_cycle;Max_cycle;Signal;HPM_P1;HPM_P2
2024/03/02 00:00:56;;;;;;;0.00;0.00;;;;;;;3.49;100.00;97586.06;6175928;23;20011;-79
2024/03/02 00:03:40;;;;;;;0.00;0.00;;;;;;;3.54;100.00;97596.81;6198541;23;20008;-80
2024/03/02 00:06:08;;;;;;;0.00;0.00;;;;;;;3.45;100.00;97593.13;6227402;23;20011;-80
2024/03/02 00:08:33;;;;;;;0.00;0.00;;;;;;;3.23;100.00;97574.75;6201007;23;20004;-79
2024/03/02 00:11:11;;;;;;;0.00;0.00;;;;;;;3.35;100.00;97590.56;6226374;23;19988;-78
2024/03/02 00:13:37;;;;;;;0.10;0.10;;;;;;;3.34;100.00;97597.84;6201094;23;20016;-79
2024/03/02 00:16:05;;;;;;;0.00;0.00;;;;;;;3.22;100.00;97592.84;6226949;23;20043;-79
2024/03/02 00:18:42;;;;;;;0.00;0.00;;;;;;;3.07;100.00;97552.53;6222975;23;20019;-79
2024/03/02 00:21:22;;;;;;;;;;;;;;;;;;;;;
2024/03/02 00:23:56;;;;;;;0.00;0.00;;;;;;;3.39;100.00;97599.66;6251684;23;20039;-79
2024/03/02 00:26:22;;;;;;;0.00;0.00;;;;;;;3.31;100.00;97588.44;6225355;23;20027;-75
2024/03/02 00:28:50;;;;;;;0.00;0.00;;;;;;;3.20;100.00;97567.22;6219711;23;20122;-75
2024/03/02 00:32:01;;;;;;;0.10;0.10;;;;;;;3.42;100.00;97593.72;6249999;23;20004;-77
2024/03/02 00:34:58;;;;;;;0.10;0.10;;;;;;;3.51;100.00;97597.38;6222977;23;20012;-74
2024/03/02 00:37:33;;;;;;;0.10;0.10;;;;;;;3.48;100.00;97593.34;6221770;23;20027;-74
2024/03/02 00:40:08;;;;;;;0.00;0.00;;;;;;;3.13;100.00;97537.88;6201051;23;20379;-75
2024/03/02 00:42:41;;;;;;;0.00;0.00;;;;;;;3.39;100.00;97588.88;6224889;23;20011;-76
2024/03/02 00:45:30;;;;;;;0.00;0.00;;;;;;;3.29;100.00;97585.19;6223974;23;20004;-74
2024/03/02 00:48:04;;;;;;;0.00;0.00;;;;;;;3.31;100.00;97582.22;6224898;23;20427;-74
2024/03/02 00:50:32;;;;;;;0.10;0.10;;;;;;;3.37;100.00;97583.75;6226370;23;20004;-75
2024/03/02 00:52:58;;;;;;;0.00;0.00;;;;;;;3.28;100.00;97566.59;6233901;23;19988;-75
2024/03/02 00:55:23;;;;;;;0.00;0.00;;;;;;;3.19;100.00;97547.50;6227105;23;20037;-74
2024/03/02 00:57:48;;;;;;;0.00;0.00;;;;;;;3.39;100.00;97573.47;6201985;23;20068;-74
2024/03/02 01:00:17;;;;;;;0.00;0.00;;;;;;;3.22;100.00;97546.13;6201337;23;20082;-75
2024/03/02 01:02:45;;;;;;;0.10;0.10;;;;;;;3.26;100.00;97539.88;6253449;23;20030;-74
2024/03/02 01:05:10;;;;;;;0.10;0.10;;;;;;;3.35;100.00;97560.84;6172274;23;20062;-75
2024/03/02 01:07:38;;;;;;;0.00;0.00;;;;;;;3.30;100.00;97550.88;6197210;23;20012;-76
2024/03/02 01:10:04;;;;;;;0.00;0.00;;;;;;;3.31;100.00;97561.44;6196372;23;20004;-76
2024/03/02 01:13:23;;;;;;;0.10;0.10;;;;;;;3.23;100.00;97559.34;6173998;23;20005;-77
2024/03/02 01:16:15;;;;;;;0.10;0.10;;;;;;;3.36;100.00;97570.53;6246946;23;20292;-77
2024/03/02 01:18:50;;;;;;;0.00;0.00;;;;;;;3.30;100.00;97570.63;6221206;23;20000;-77
2024/03/02 01:22:24;;;;;;;0.00;0.00;;;;;;;3.01;100.00;97524.78;6221380;22;20007;-77
2024/03/02 01:32:07;;;;;;;;;;;;;;;;;;;;;
2024/03/02 01:38:11;;;;;;;0.00;0.00;;;;;;;2.93;100.00;97523.50;6126179;23;20006;-77
2024/03/02 01:40:59;;;;;;;0.00;0.00;;;;;;;3.12;100.00;97574.06;6128854;23;19997;-77
2024/03/02 01:44:14;;;;;;;;;;;;;;;;;;;;;
2024/03/02 01:50:25;;;;;;;0.00;0.00;;;;;;;2.49;100.00;97551.47;6086809;23;20108;-79
2024/03/02 01:59:50;;;;;;;;;;;;;;;;;;;;;
2024/03/02 02:02:47;;;;;;;0.00;0.00;;;;;;;2.46;100.00;97527.75;6037084;23;20086;-78
2024/03/02 02:05:59;;;;;;;0.10;0.10;;;;;;;2.53;100.00;97525.53;6043650;23;20045;-78
2024/03/02 02:09:10;;;;;;;;;;;;;;;;;;;;;
2024/03/02 02:12:31;;;;;;;;;;;;;;;;;;;;;
2024/03/02 02:16:23;;;;;;;;;;;;;;;;;;;;;
2024/03/02 02:19:13;;;;;;;0.10;0.10;;;;;;;2.93;100.00;97511.91;6209996;23;20043;-77
2024/03/02 02:22:41;;;;;;;;;;;;;;;;;;;;;
2024/03/02 02:25:44;;;;;;;;;;;;;;;;;;;;;
2024/03/02 02:29:00;;;;;;;0.00;0.00;;;;;;;2.87;100.00;97423.97;6251388;22;20032;-78
2024/03/02 02:35:17;;;;;;;;;;;;;;;;;;;;;
2024/03/02 02:38:22;;;;;;;0.00;0.00;;;;;;;3.31;100.00;97431.78;6249328;22;20038;-77
2024/03/02 02:40:52;;;;;;;0.08;0.08;;;;;;;3.19;100.00;97401.69;6221129;23;20054;-75
2024/03/02 02:43:20;;;;;;;0.00;0.00;;;;;;;3.17;100.00;97389.56;6247203;22;20000;-75
2024/03/02 02:45:45;;;;;;;0.00;0.00;;;;;;;3.37;100.00;97412.78;6245369;23;20012;-76
2024/03/02 02:48:10;;;;;;;0.00;0.00;;;;;;;3.32;100.00;97384.75;6169545;23;20035;-76
2024/03/02 02:50:36;;;;;;;0.10;0.10;;;;;;;3.53;100.00;97405.25;6172125;23;20008;-76
2024/03/02 02:53:06;;;;;;;0.00;0.00;;;;;;;3.50;100.00;97385.03;6170662;23;20055;-78
2024/03/02 02:55:33;;;;;;;0.10;0.10;;;;;;;3.52;100.00;97376.63;6221880;23;19996;-76
2024/03/02 02:57:59;;;;;;;0.00;0.00;;;;;;;3.43;100.00;97358.41;6171058;23;20015;-77
2024/03/02 03:00:24;;;;;;;0.10;0.10;;;;;;;3.49;100.00;97351.81;6196808;23;20004;-76
2024/03/02 03:05:43;;;;;;;0.00;0.00;;;;;;;3.70;100.00;97323.66;6206249;23;20004;-76
2024/03/02 03:08:25;;;;;;;;;;;;;;;;;;;;;
2024/03/02 03:10:59;;;;;;;0.00;0.00;;;;;;;3.71;100.00;97288.22;6250031;23;20040;-76
2024/03/02 03:13:25;;;;;;;0.10;0.10;;;;;;;3.98;100.00;97322.59;6170924;23;20012;-76
2024/03/02 03:15:50;;;;;;;0.10;0.10;;;;;;;3.95;100.00;97296.16;6222345;23;20075;-74
2024/03/02 03:18:16;;;;;;;0.00;0.00;;;;;;;4.02;100.00;97277.63;6194252;23;19996;-76
2024/03/02 03:20:45;;;;;;;0.10;0.10;;;;;;;4.22;100.00;97299.97;6221978;23;20007;-76
2024/03/02 03:23:15;;;;;;;0.10;0.10;;;;;;;4.13;100.00;97296.34;6170447;23;20051;-76
2024/03/02 03:25:41;;;;;;;0.00;0.00;;;;;;;4.16;100.00;97290.34;6245880;23;20024;-76
2024/03/02 03:28:09;;;;;;;0.00;0.00;;;;;;;3.97;100.00;97285.03;6198808;23;20298;-76
2024/03/02 03:30:39;;;;;;;0.00;0.00;;;;;;;3.93;100.00;97309.16;6223391;23;20019;-75
2024/03/02 03:33:07;;;;;;;0.00;0.00;;;;;;;3.21;100.00;97329.28;6226974;23;20004;-76
2024/03/02 03:35:32;;;;;;;0.00;0.00;;;;;;;2.82;100.00;97330.41;6223374;23;20076;-77
2024/03/02 03:37:58;;;;;;;0.00;0.00;;;;;;;2.48;100.00;97301.69;6198793;23;20008;-77
2024/03/02 03:40:23;;;;;;;0.00;0.00;;;;;;;2.40;100.00;97305.03;6197822;23;19999;-77
2024/03/02 03:42:50;;;;;;;0.10;0.10;;;;;;;2.35;100.00;97321.28;6222857;23;19996;-76
2024/03/02 03:45:16;;;;;;;0.00;0.00;;;;;;;2.15;100.00;97325.81;6223293;23;20012;-76
2024/03/02 03:47:41;;;;;;;0.10;0.10;;;;;;;2.13;100.00;97316.41;6250315;23;20087;-77
2024/03/02 03:50:10;;;;;;;0.00;0.00;;;;;;;2.14;100.00;97310.72;6196627;23;20080;-78
2024/03/02 03:52:43;;;;;;;0.00;0.00;;;;;;;2.19;100.00;97299.91;6225788;23;20007;-77
2024/03/02 03:55:10;;;;;;;0.00;0.00;;;;;;;2.25;100.00;97298.75;6224003;23;20150;-76
2024/03/02 03:57:35;;;;;;;0.00;0.00;;;;;;;2.27;100.00;97291.16;6202444;23;20058;-76
2024/03/02 04:00:04;;;;;;;0.00;0.00;;;;;;;2.24;100.00;97285.56;6184801;23;20012;-76
2024/03/02 04:02:29;;;;;;;0.00;0.00;;;;;;;2.13;100.00;97275.97;6228270;23;20012;-76
2024/03/02 04:04:54;;;;;;;0.00;0.00;;;;;;;2.21;100.00;97281.53;6175345;23;20004;-75
2024/03/02 04:07:20;;;;;;;0.10;0.10;;;;;;;2.17;100.00;97282.41;6198425;23;20431;-76
2024/03/02 04:09:45;;;;;;;0.00;0.00;;;;;;;2.11;100.00;97275.47;6199085;23;20010;-75
2024/03/02 04:12:12;;;;;;;0.00;0.00;;;;;;;2.11;100.00;97281.66;6170435;23;20008;-76
2024/03/02 04:14:38;;;;;;;0.00;0.00;;;;;;;2.02;100.00;97251.03;6199015;23;20008;-76
2024/03/02 04:17:03;;;;;;;0.00;0.00;;;;;;;2.20;100.00;97260.25;6197110;23;20055;-76
2024/03/02 04:19:29;;;;;;;0.10;0.10;;;;;;;2.10;100.00;97242.28;6198724;23;20004;-76
2024/03/02 04:21:54;;;;;;;0.10;0.10;;;;;;;2.05;100.00;97255.84;6220811;23;20078;-75
2024/03/02 04:24:20;;;;;;;0.10;0.10;;;;;;;1.80;100.00;97232.72;6250001;22;20035;-75
2024/03/02 04:26:52;;;;;;;0.00;0.00;;;;;;;1.92;100.00;97241.97;6196445;23;20015;-76
2024/03/02 04:29:18;;;;;;;0.00;0.00;;;;;;;2.08;100.00;97255.28;6199621;23;20004;-75
2024/03/02 04:31:44;;;;;;;0.00;0.00;;;;;;;2.23;100.00;97251.56;6197543;23;20000;-75
2024/03/02 04:34:10;;;;;;;0.10;0.10;;;;;;;2.37;100.00;97257.06;6220743;23;20060;-76
2024/03/02 04:36:36;;;;;;;0.00;0.00;;;;;;;2.40;100.00;97259.19;6222765;23;20007;-74
2024/03/02 04:39:09;;;;;;;0.10;0.10;;;;;;;2.44;100.00;97258.31;6246994;23;20008;-75
2024/03/02 04:41:35;;;;;;;0.00;0.00;;;;;;;2.62;100.00;97267.50;6221116;23;20012;-76
2024/03/02 04:44:00;;;;;;;0.00;0.00;;;;;;;2.55;100.00;97242.00;6221717;23;20079;-75
2024/03/02 04:46:25;;;;;;;0.00;0.00;;;;;;;2.78;100.00;97272.69;6222119;23;20099;-76
2024/03/02 04:49:07;;;;;;;0.10;0.10;;;;;;;2.75;100.00;97267.88;6197045;23;20020;-75
2024/03/02 04:51:32;;;;;;;0.00;0.00;;;;;;;2.92;100.00;97284.38;6198930;23;20004;-76
2024/03/02 04:53:57;;;;;;;0.00;0.00;;;;;;;2.80;100.00;97265.09;6223940;23;20115;-76
2024/03/02 04:58:57;;;;;;;;;;;;;;;3.01;100.00;97289.09;6202641;23;20012;-76
2024/03/02 05:01:23;;;;;;;0.08;0.08;;;;;;;2.93;100.00;97280.56;6201653;23;19987;-76
2024/03/02 05:03:48;;;;;;;0.00;0.00;;;;;;;2.77;100.00;97255.72;6227289;23;20035;-76
2024/03/02 05:06:24;;;;;;;0.10;0.10;;;;;;;3.08;100.00;97294.91;6249742;23;20014;-76
2024/03/02 05:09:16;;;;;;;0.10;0.10;;;;;;;2.96;100.00;97273.78;6224001;23;20063;-77
2024/03/02 05:14:09;;;;;;;0.10;0.10;;;;;;;2.92;100.00;97273.56;6233710;23;20030;-76
2024/03/02 05:16:45;;;;;;;0.10;0.10;;;;;;;3.02;100.00;97315.00;6198722;23;20004;-76
2024/03/02 05:19:10;;;;;;;0.00;0.00;;;;;;;2.93;100.00;97323.75;6252143;22;20004;-75
2024/03/02 05:21:40;;;;;;;0.10;0.10;;;;;;;2.86;100.00;97336.81;6222194;23;20051;-76
2024/03/02 05:24:32;;;;;;;0.10;0.10;;;;;;;2.32;100.00;97279.50;6222714;23;20000;-75
2024/03/02 05:26:58;;;;;;;0.00;0.00;;;;;;;2.67;100.00;97346.78;6223514;23;20063;-76
2024/03/02 05:29:26;;;;;;;0.00;0.00;;;;;;;2.38;100.00;97318.00;6223046;23;20058;-76
2024/03/02 05:31:53;;;;;;;0.00;0.00;;;;;;;2.21;100.00;97316.56;6219506;23;19992;-75
2024/03/02 05:34:19;;;;;;;0.10;0.10;;;;;;;2.08;100.00;97344.22;6222460;23;20080;-75
2024/03/02 05:36:47;;;;;;;0.00;0.00;;;;;;;1.90;100.00;97343.88;6222132;23;20415;-76
2024/03/02 05:39:13;;;;;;;0.10;0.10;;;;;;;1.87;100.00;97351.69;6222547;23;20380;-76
2024/03/02 05:41:39;;;;;;;0.00;0.00;;;;;;;1.77;100.00;97358.00;6194980;23;20012;-75
2024/03/02 05:44:19;;;;;;;0.00;0.00;;;;;;;1.86;100.00;97388.63;6247658;23;20019;-77
2024/03/02 05:47:17;;;;;;;0.00;0.00;;;;;;;1.82;100.00;97398.38;6195988;23;20008;-76
2024/03/02 05:49:43;;;;;;;0.10;0.10;;;;;;;1.72;100.00;97401.16;6177035;23;20004;-75
2024/03/02 05:52:09;;;;;;;0.00;0.00;;;;;;;1.65;100.00;97392.59;6193148;23;20028;-75
2024/03/02 05:54:37;;;;;;;0.00;0.00;;;;;;;1.61;100.00;97399.63;6197914;23;20012;-77
2024/03/02 05:57:16;;;;;;;0.00;0.00;;;;;;;1.52;100.00;97400.22;6247117;23;20000;-75
2024/03/02 05:59:53;;;;;;;;;;;;;;;;;;;;;
2024/03/02 06:02:30;;;;;;;0.00;0.00;;;;;;;1.28;100.00;97405.50;6223906;23;20706;-75
2024/03/02 06:04:56;;;;;;;0.10;0.10;;;;;;;1.04;100.00;97395.44;6176084;23;20027;-75
2024/03/02 06:07:28;;;;;;;0.00;0.00;;;;;;;1.01;100.00;97414.03;6219676;23;20355;-76
2024/03/02 06:09:57;;;;;;;0.10;0.10;;;;;;;0.96;100.00;97430.19;6175028;23;20015;-76
2024/03/02 06:12:22;;;;;;;0.00;0.00;;;;;;;0.90;100.00;97431.28;6218893;23;20332;-74
2024/03/02 06:14:47;;;;;;;0.10;0.10;;;;;;;0.84;100.00;97439.38;6197369;23;20008;-76
2024/03/02 06:17:23;;;;;;;;;;;;;;;;;;;;;
2024/03/02 06:19:49;;;;;;;0.10;0.10;;;;;;;0.68;100.00;97456.66;6223058;22;20034;-75
2024/03/02 06:22:14;;;;;;;0.10;0.10;;;;;;;0.55;100.00;97435.72;6168322;23;20025;-75
2024/03/02 06:24:39;;;;;;;0.10;0.10;;;;;;;0.42;100.00;97424.47;6166084;23;20009;-75
2024/03/02 06:27:05;;;;;;;0.10;0.10;;;;;;;0.57;100.00;97465.84;6166002;23;20221;-75
2024/03/02 06:29:34;;;;;;;0.00;0.00;;;;;;;0.49;100.00;97459.94;6214935;23;20015;-75
2024/03/02 06:32:00;;;;;;;0.10;0.10;;;;;;;0.45;100.00;97455.38;6191542;23;20019;-75
2024/03/02 06:34:30;;;;;;;0.10;0.10;;;;;;;0.47;100.00;97462.09;6190418;23;20009;-75
2024/03/02 06:36:57;;;;;;;0.10;0.10;;;;;;;0.16;100.00;97413.78;6165775;23;20327;-76
2024/03/02 06:39:24;;;;;;;0.00;0.00;;;;;;;0.29;100.00;97433.09;6191606;23;20483;-75
2024/03/02 06:41:50;;;;;;;0.00;0.00;;;;;;;0.48;100.00;97465.59;6215567;23;20019;-76
2024/03/02 06:44:16;;;;;;;0.08;0.08;;;;;;;0.51;100.00;97479.31;6191308;23;20016;-76
2024/03/02 06:46:43;;;;;;;0.00;0.00;;;;;;;0.47;100.00;97459.41;6189796;23;20012;-75
2024/03/02 06:49:10;;;;;;;0.00;0.00;;;;;;;0.46;100.00;97460.47;6191262;23;20019;-73
2024/03/02 06:51:36;;;;;;;0.10;0.10;;;;;;;0.64;100.00;97488.69;6189911;23;20012;-75
2024/03/02 06:54:02;;;;;;;0.10;0.10;;;;;;;0.52;100.00;97454.00;6216292;23;20064;-75
2024/03/02 06:56:27;;;;;;;0.10;0.10;;;;;;;0.57;100.00;97463.97;6217088;23;20028;-75
2024/03/02 06:58:53;;;;;;;0.00;0.00;;;;;;;0.81;100.00;97491.03;6213843;23;20003;-75
2024/03/02 07:01:20;;;;;;;0.00;0.00;;;;;;;0.82;100.00;97498.03;6217180;23;20000;-75
2024/03/02 07:03:46;;;;;;;0.00;0.00;;;;;;;0.78;100.00;97493.50;6166613;23;20017;-77
2024/03/02 07:06:11;;;;;;;0.00;0.00;;;;;;;0.91;100.00;97519.81;6216230;23;20007;-75
2024/03/02 07:08:37;;;;;;;0.10;0.10;;;;;;;0.67;100.00;97485.44;6221916;23;20001;-75
2024/03/02 07:11:02;;;;;;;0.10;0.10;;;;;;;0.90;100.00;97522.78;6223938;23;20063;-75
2024/03/02 07:13:31;;;;;;;0.00;0.00;;;;;;;0.82;100.00;97524.16;6219738;23;20336;-75
2024/03/02 07:18:41;;;;;;;0.10;0.10;;;;;;;0.66;100.00;97534.16;6216746;23;20013;-76
2024/03/02 07:21:07;;;;;;;0.03;0.03;;;;;;;0.63;100.00;97537.38;6167705;23;20012;-76
2024/03/02 07:23:33;;;;;;;0.00;0.00;;;;;;;0.62;100.00;97543.81;6221701;23;20027;-75
2024/03/02 07:26:01;;;;;;;0.10;0.10;;;;;;;0.77;100.00;97551.84;6195714;23;20125;-75
2024/03/02 07:28:27;;;;;;;0.10;0.10;;;;;;;0.84;100.00;97536.22;6172625;23;20070;-76
2024/03/02 07:30:59;;;;;;;0.05;0.05;;;;;;;1.04;100.00;97550.72;6222617;23;20032;-74
2024/03/02 07:33:25;;;;;;;0.10;0.10;;;;;;;1.14;100.00;97537.22;6220655;23;20008;-75
2024/03/02 07:35:50;;;;;;;0.10;0.10;;;;;;;1.33;100.00;97568.91;6196768;23;19988;-74
2024/03/02 07:38:18;;;;;;;0.00;0.00;;;;;;;1.22;100.00;97535.84;6169595;23;20427;-76
2024/03/02 07:40:44;;;;;;;0.00;0.00;;;;;;;1.40;100.00;97553.25;6192962;23;20038;-74
2024/03/02 07:43:09;;;;;;;0.00;0.00;;;;;;;1.30;100.00;97526.38;6193789;23;20015;-73
2024/03/02 07:45:37;;;;;;;0.00;0.00;;;;;;;1.47;100.00;97545.69;6194592;23;20103;-73
2024/03/02 07:48:06;;;;;;;0.00;0.00;;;;;;;1.50;100.00;97542.44;6221162;23;20004;-76
2024/03/02 07:50:34;;;;;;;0.10;0.10;;;;;;;1.48;100.00;97544.59;6171845;23;20358;-75
2024/03/02 07:53:00;;;;;;;0.00;0.00;;;;;;;1.60;100.00;97554.25;6222550;23;20031;-75
2024/03/02 07:55:34;;;;;;;0.00;0.00;;;;;;;1.78;100.00;97567.06;6221391;23;20012;-75
2024/03/02 07:58:09;;;;;;;0.00;0.00;;;;;;;1.76;100.00;97550.38;6248824;22;20036;-74
2024/03/02 08:00:35;;;;;;;0.10;0.10;;;;;;;2.02;100.00;97575.28;6246022;23;20000;-75
2024/03/02 08:03:01;;;;;;;0.00;0.00;;;;;;;1.95;100.00;97563.22;6222214;23;20012;-74
2024/03/02 08:05:27;;;;;;;0.00;0.00;;;;;;;1.95;100.00;97557.81;6220875;23;20000;-76
2024/03/02 08:07:53;;;;;;;0.00;0.00;;;;;;;2.12;100.00;97590.59;6194781;23;20043;-75
2024/03/02 08:10:19;;;;;;;0.00;0.00;;;;;;;2.01;100.00;97578.25;6196907;23;20008;-75
2024/03/02 08:12:45;;;;;;;0.00;0.00;;;;;;;2.08;100.00;97594.94;6216933;23;20312;-75
2024/03/02 08:15:12;;;;;;;0.10;0.10;;;;;;;2.02;100.00;97585.28;6221284;23;20011;-75
2024/03/02 08:17:40;;;;;;;0.00;0.00;;;;;;;1.94;100.00;97583.16;6217592;23;20828;-75
2024/03/02 08:20:07;;;;;;;0.10;0.10;;;;;;;2.01;100.00;97597.13;6194732;23;20099;-74
2024/03/02 08:22:33;;;;;;;0.10;0.10;;;;;;;2.00;100.00;97598.19;6193432;23;20111;-74
2024/03/02 08:24:59;;;;;;;0.00;0.00;;;;;;;2.15;100.00;97627.78;6193782;23;20442;-74
2024/03/02 08:27:27;;;;;;;0.00;0.00;;;;;;;2.14;100.00;97615.38;6194853;23;19998;-75
2024/03/02 08:29:52;;;;;;;0.10;0.10;;;;;;;2.18;100.00;97629.91;6219761;23;20012;-74
2024/03/02 08:32:21;;;;;;;0.00;0.00;;;;;;;2.20;100.00;97633.13;6197102;23;20012;-73
2024/03/02 08:34:46;;;;;;;0.00;0.00;;;;;;;2.24;100.00;97636.06;6196537;23;20011;-74
2024/03/02 08:37:12;;;;;;;0.00;0.00;;;;;;;2.35;100.00;97626.00;6247660;23;20000;-75
2024/03/02 08:40:07;;;;;;;0.00;0.00;;;;;;;2.47;100.00;97623.78;6195785;23;20343;-75
2024/03/02 08:42:35;;;;;;;0.10;0.10;;;;;;;2.60;100.00;97625.84;6249635;23;19988;-76
2024/03/02 08:45:20;;;;;;;;;;;;;;;;;;;;;
2024/03/02 08:47:48;;;;;;;;;;;;;;;2.99;100.00;97640.31;6252622;23;20043;-77
2024/03/02 08:50:23;;;;;;;0.00;0.00;;;;;;;2.87;100.00;97585.94;6222754;23;19923;-75
2024/03/02 08:52:51;;;;;;;0.00;0.00;;;;;;;3.32;100.00;97649.44;6250512;23;20008;-75
2024/03/02 08:55:44;;;;;;;0.00;0.00;;;;;;;3.49;100.00;97648.22;6222214;23;20091;-76
2024/03/02 08:58:12;;;;;;;0.03;0.03;;;;;;;3.46;100.00;97627.16;6175670;23;20015;-76
2024/03/02 09:00:38;;;;;;;0.00;0.00;;;;;;;3.61;100.00;97658.63;6249796;22;20008;-76
2024/03/02 09:03:04;;;;;;;0.00;0.00;;;;;;;3.61;100.00;97653.22;6223635;23;20420;-76
2024/03/02 09:05:30;;;;;;;0.00;0.00;;;;;;;3.71;100.00;97654.97;6197049;23;20422;-76
2024/03/02 09:07:55;;;;;;;0.10;0.10;;;;;;;3.94;100.00;97662.28;6197059;23;20795;-76
2024/03/02 09:10:21;;;;;;;0.00;0.00;;;;;;;3.87;100.00;97642.06;6225386;23;20088;-76
2024/03/02 09:12:46;;;;;;;0.10;0.10;;;;;;;3.99;100.00;97664.09;6195540;23;20004;-76
2024/03/02 09:15:18;;;;;;;0.00;0.00;;;;;;;4.00;100.00;97657.56;6223893;23;20094;-74
2024/03/02 09:17:54;;;;;;;;;;;;;;;;;;;;;
2024/03/02 09:20:23;;;;;;;0.00;0.00;;;;;;;4.00;100.00;97653.00;6203876;23;20032;-74
2024/03/02 09:22:48;;;;;;;0.10;0.10;;;;;;;4.20;100.00;97670.03;6220976;23;20016;-75
2024/03/02 09:25:14;;;;;;;0.00;0.00;;;;;;;4.37;100.00;97683.06;6247673;23;20027;-77
2024/03/02 09:27:40;;;;;;;0.00;0.00;;;;;;;4.26;100.00;97690.50;6221642;23;20072;-75
2024/03/02 09:30:09;;;;;;;0.00;0.00;;;;;;;4.20;100.00;97688.97;6171835;23;20336;-76
2024/03/02 09:32:34;;;;;;;0.00;0.00;;;;;;;4.28;100.00;97685.63;6222926;23;20001;-74
2024/03/02 09:35:00;;;;;;;0.00;0.00;;;;;;;4.41;100.00;97694.09;6217987;23;20004;-75
2024/03/02 09:37:26;;;;;;;0.00;0.00;;;;;;;4.60;100.00;97697.63;6198340;23;20323;-75
2024/03/02 09:39:52;;;;;;;0.10;0.10;;;;;;;4.67;100.00;97703.47;6220776;23;20031;-75
2024/03/02 09:42:17;;;;;;;0.00;0.00;;;;;;;4.61;100.00;97687.59;6195244;23;20012;-74
2024/03/02 09:44:43;;;;;;;0.00;0.00;;;;;;;4.85;100.00;97693.69;6171231;23;20007;-73
2024/03/02 09:47:10;;;;;;;0.00;0.00;;;;;;;5.04;100.00;97701.00;6170425;23;20036;-75
2024/03/02 09:49:36;;;;;;;0.10;0.10;;;;;;;4.97;100.00;97700.56;6197251;23;20012;-74
2024/03/02 09:52:04;;;;;;;0.00;0.00;;;;;;;5.03;100.00;97705.59;6169552;23;20008;-74
2024/03/02 09:54:29;;;;;;;0.10;0.10;;;;;;;5.00;100.00;97689.94;6221606;23;20012;-72
2024/03/02 09:56:55;;;;;;;0.00;0.00;;;;;;;5.16;100.00;97708.66;6170648;23;20027;-72
2024/03/02 09:59:20;;;;;;;0.00;0.00;;;;;;;5.32;100.00;97709.19;6219816;23;20008;-74
2024/03/02 10:02:06;;;;;;;0.10;0.10;;;;;;;4.94;100.00;97696.53;6224289;23;20111;-78
2024/03/02 10:04:44;;;;;;;0.00;0.00;;;;;;;4.90;100.00;97717.97;6224439;23;19995;-77
2024/03/02 10:07:11;;;;;;;0.10;0.10;;;;;;;4.79;100.00;97721.13;6248960;23;20368;-74
2024/03/02 10:09:36;;;;;;;0.10;0.10;;;;;;;4.63;100.00;97707.84;6247193;23;20052;-76
2024/03/02 10:12:13;;;;;;;0.00;0.00;;;;;;;4.76;100.00;97724.44;6252179;22;20004;-77
2024/03/02 10:14:52;;;;;;;0.00;0.00;;;;;;;4.70;100.00;97729.94;6195219;23;20008;-78
2024/03/02 10:17:18;;;;;;;0.00;0.00;;;;;;;4.59;100.00;97731.19;6225088;23;20063;-76
2024/03/02 10:19:43;;;;;;;0.00;0.00;;;;;;;4.53;100.00;97724.25;6196551;23;20038;-76
2024/03/02 10:22:10;;;;;;;0.00;0.00;;;;;;;4.75;100.00;97730.97;6197535;23;20048;-76
2024/03/02 10:24:36;;;;;;;0.10;0.10;;;;;;;4.92;100.00;97735.84;6194786;23;20016;-76
2024/03/02 10:27:02;;;;;;;0.00;0.00;;;;;;;5.22;100.00;97734.56;6222189;23;20000;-77
2024/03/02 10:29:29;;;;;;;0.00;0.00;;;;;;;5.57;100.00;97732.31;6194915;23;20004;-76
2024/03/02 10:31:56;;;;;;;0.10;0.10;;;;;;;5.74;100.00;97735.25;6196292;23;20051;-75
2024/03/02 10:34:22;;;;;;;0.10;0.10;;;;;;;5.65;100.00;97737.06;6221109;23;20004;-75
2024/03/02 10:36:47;;;;;;;0.10;0.10;;;;;;;5.41;100.00;97738.00;6248532;23;20326;-75
2024/03/02 10:39:14;;;;;;;0.00;0.00;;;;;;;5.17;100.00;97738.16;6197297;23;19988;-76
2024/03/02 10:41:40;;;;;;;0.00;0.00;;;;;;;5.15;100.00;97748.47;6196745;23;20103;-73
2024/03/02 10:44:07;;;;;;;0.00;0.00;;;;;;;5.03;100.00;97754.34;6220284;23;20497;-74
2024/03/02 10:46:34;;;;;;;0.00;0.00;;;;;;;4.95;100.00;97749.63;6247907;23;20012;-74
2024/03/02 10:49:02;;;;;;;0.00;0.00;;;;;;;5.14;100.00;97751.47;6194720;23;20008;-74
2024/03/02 10:51:31;;;;;;;0.00;0.00;;;;;;;5.38;100.00;97767.63;6221387;23;20315;-75
2024/03/02 10:53:57;;;;;;;0.00;0.00;;;;;;;5.61;100.00;97763.16;6195892;23;20051;-73
2024/03/02 10:56:40;;;;;;;0.00;0.00;;;;;;;5.82;100.00;97765.50;6223530;23;20434;-74
2024/03/02 10:59:38;;;;;;;0.00;0.00;;;;;;;5.89;100.00;97768.63;6218350;23;20004;-75
2024/03/02 11:02:06;;;;;;;0.00;0.00;;;;;;;5.85;100.00;97773.03;6220144;23;20004;-75
2024/03/02 11:04:35;;;;;;;0.00;0.00;;;;;;;5.82;100.00;97779.84;6221253;23;20012;-75
2024/03/02 11:07:07;;;;;;;0.00;0.00;;;;;;;5.80;100.00;97781.25;6200206;23;20087;-74
2024/03/02 11:10:08;;;;;;;0.00;0.00;;;;;;;5.69;100.00;97772.50;6228108;23;20011;-75
2024/03/02 11:15:59;;;;;;;0.00;0.00;;;;;;;5.34;100.00;97778.22;6201510;23;20004;-75
2024/03/02 11:18:29;;;;;;;0.08;0.08;;;;;;;5.17;100.00;97786.09;6224858;23;19988;-76
2024/03/02 11:20:58;;;;;;;0.00;0.00;;;;;;;5.04;100.00;97804.72;6195602;23;20014;-76
2024/03/02 11:23:45;;;;;;;;;;;;;;;;;;;;;
2024/03/02 11:26:23;;;;;;;0.00;0.00;;;;;;;5.88;100.00;97781.38;6248464;23;20728;-77
2024/03/02 11:28:51;;;;;;;0.00;0.00;;;;;;;6.72;100.00;97813.97;6220195;23;20003;-75
2024/03/02 11:31:17;;;;;;;0.00;0.00;;;;;;;6.78;100.00;97778.22;6220105;23;19996;-77
2024/03/02 11:33:42;;;;;;;0.10;0.10;;;;;;;6.65;100.00;97789.94;6247604;23;20319;-76
2024/03/02 11:36:15;;;;;;;0.10;0.10;;;;;;;6.43;100.00;97810.47;6197907;23;20004;-76
2024/03/02 11:42:03;;;;;;;0.00;0.00;;;;;;;7.22;100.00;97819.34;6129943;23;20048;-77
2024/03/02 11:44:32;;;;;;;0.00;0.00;;;;;;;7.70;100.00;97815.22;6251086;23;20004;-77
2024/03/02 11:47:10;;;;;;;0.00;0.00;;;;;;;7.66;100.00;97827.81;6221173;23;20007;-80
2024/03/02 11:50:06;;;;;;;0.10;0.10;;;;;;;7.30;100.00;97828.69;6222466;23;20415;-76
2024/03/02 11:53:13;;;;;;;0.00;0.00;;;;;;;6.40;100.00;97789.34;6208716;23;20028;-77
2024/03/02 11:55:48;;;;;;;0.00;0.00;;;;;;;6.14;100.00;97834.38;6187330;23;20013;-76
2024/03/02 11:58:30;;;;;;;;;;;;;;;;;;;;;
2024/03/02 12:00:59;;;;;;;0.00;0.00;;;;;;;6.11;100.00;97801.31;6248885;23;20458;-77
2024/03/02 12:03:26;;;;;;;0.10;0.10;;;;;;;6.32;100.00;97800.91;6225887;23;19994;-77
2024/03/02 12:05:59;;;;;;;0.00;0.00;;;;;;;6.97;100.00;97818.03;6223689;23;20007;-77
2024/03/02 12:08:46;;;;;;;;;;;;;;;;;;;;;
2024/03/02 12:12:07;;;;;;;0.00;0.00;;;;;;;6.93;100.00;97795.28;6224628;23;20031;-77
2024/03/02 12:14:38;;;;;;;0.00;0.00;;;;;;;6.40;100.00;97799.41;6220899;23;20000;-78
2024/03/02 12:17:44;;;;;;;;;;;;;;;;;;;;;
2024/03/02 12:24:10;;;;;;;0.10;0.10;;;;;;;12.58;100.00;97835.81;6235841;22;20046;-77
2024/03/02 12:26:35;;;;;;;0.05;0.05;;;;;;;14.05;75.34;97810.28;6248918;23;20245;-76
2024/03/02 12:29:01;;;;;;;0.00;0.00;;;;;;;12.37;76.75;97838.66;6225845;23;20011;-77
2024/03/02 12:46:25;;;;;;;0.10;0.10;;;;;;;6.99;100.00;97838.34;5948121;23;20093;-78
2024/03/02 12:53:24;;;;;;;0.00;0.00;;;;;;;7.16;100.00;97843.13;5931517;24;20065;-77
2024/03/02 13:11:30;;;;;;;0.00;0.00;;;;;;;11.20;83.19;97850.56;5821768;24;20098;-76
2024/03/02 13:13:56;;;;;;;0.00;0.00;;;;;;;10.61;80.14;97813.91;5822097;24;20007;-76
2024/03/02 13:16:24;;;;;;;0.00;0.00;;;;;;;10.26;84.32;97833.16;5871109;24;20055;-78
2024/03/02 13:18:49;;;;;;;0.00;0.00;;;;;;;9.94;86.55;97854.50;5930383;23;20038;-77
2024/03/02 13:21:15;;;;;;;0.00;0.00;;;;;;;9.59;89.42;97859.19;6086894;23;20477;-77
2024/03/02 13:23:43;;;;;;;0.00;0.00;;;;;;;9.52;92.73;97858.84;6165016;23;20008;-73
2024/03/02 13:26:10;;;;;;;0.00;0.00;;;;;;;10.21;91.27;97866.13;6199353;23;20023;-73
2024/03/02 13:28:36;;;;;;;0.00;0.00;;;;;;;10.84;88.06;97865.56;6219397;23;20059;-75
2024/03/02 13:31:01;;;;;;;0.00;0.00;;;;;;;16.85;77.62;97866.84;6171582;23;20008;-74
2024/03/02 13:33:26;;;;;;;0.10;0.10;;;;;;;18.93;59.54;97854.72;6223156;23;20145;-76
2024/03/02 13:35:52;;;;;;;0.00;0.00;;;;;;;18.08;57.05;97867.38;6197698;23;20008;-76
2024/03/02 13:38:26;;;;;;;0.10;0.10;;;;;;;21.68;54.45;97873.53;6195749;23;20014;-75
2024/03/02 13:40:52;;;;;;;0.00;0.00;;;;;;;25.25;42.29;97876.19;6221705;23;20058;-76
2024/03/02 13:43:24;;;;;;;0.00;0.00;;;;;;;26.34;38.05;97874.84;6172234;23;20015;-75